createdAt,value
2022-09-15T00:00:04.551Z,100.00
2022-09-15T00:02:31.720Z,100.00
2022-09-15T00:04:58.149Z,100.00
2022-09-15T00:07:24.494Z,100.00
2022-09-15T00:09:50.836Z,100.00
2022-09-15T00:12:17.200Z,100.00
2022-09-15T00:14:43.543Z,100.00
2022-09-15T00:17:10.168Z,100.00
2022-09-15T00:19:36.512Z,100.00
2022-09-15T00:22:02.875Z,100.00
2022-09-15T00:24:29.201Z,100.00
2022-09-15T00:26:56.764Z,100.00
2022-09-15T00:29:23.131Z,100.00
2022-09-15T00:31:49.716Z,100.00
2022-09-15T00:34:16.266Z,100.00
2022-09-15T00:36:42.617Z,100.00
2022-09-15T00:39:08.934Z,100.00
2022-09-15T00:41:35.311Z,100.00
2022-09-15T00:44:02.808Z,100.00
2022-09-15T00:46:33.266Z,100.00
2022-09-15T00:49:01.613Z,100.00
2022-09-15T00:51:29.700Z,100.00
2022-09-15T00:53:56.021Z,100.00
2022-09-15T00:56:22.400Z,100.00
2022-09-15T00:58:56.940Z,100.00
2022-09-15T01:01:23.810Z,100.00
2022-09-15T01:03:50.183Z,100.00
2022-09-15T01:06:25.542Z,100.00
2022-09-15T01:08:57.774Z,100.00
2022-09-15T01:11:24.087Z,100.00
2022-09-15T01:13:50.410Z,100.00
2022-09-15T01:16:36.264Z,100.00
2022-09-15T01:19:02.551Z,100.00
2022-09-15T01:21:43.089Z,100.00
2022-09-15T01:24:09.384Z,100.00
2022-09-15T01:26:45.902Z,100.00
2022-09-15T01:29:30.917Z,100.00
2022-09-15T01:32:16.722Z,100.00
2022-09-15T01:34:44.627Z,100.00
2022-09-15T01:37:13.105Z,100.00
2022-09-15T01:39:40.425Z,100.00
2022-09-15T01:42:07.951Z,100.00
2022-09-15T01:44:35.327Z,100.00
2022-09-15T01:47:03.075Z,100.00
2022-09-15T01:49:30.875Z,100.00
2022-09-15T01:55:42.937Z,100.00
2022-09-15T01:58:09.231Z,100.00
2022-09-15T02:00:36.905Z,100.00
2022-09-15T02:03:05.298Z,100.00
2022-09-15T02:05:37.269Z,100.00
2022-09-15T02:08:15.538Z,100.00
2022-09-15T02:11:00.727Z,100.00
2022-09-15T02:13:38.370Z,100.00
2022-09-15T02:16:04.876Z,100.00
2022-09-15T02:18:45.177Z,100.00
2022-09-15T02:21:13.007Z,100.00
2022-09-15T02:23:40.881Z,100.00
2022-09-15T02:26:11.622Z,100.00
2022-09-15T02:28:38.565Z,100.00
2022-09-15T02:31:05.334Z,100.00
2022-09-15T02:33:32.999Z,100.00
2022-09-15T02:35:59.277Z,100.00
2022-09-15T02:38:26.635Z,100.00
2022-09-15T02:40:52.946Z,100.00
2022-09-15T02:43:19.292Z,100.00
2022-09-15T02:45:45.915Z,100.00
2022-09-15T02:48:13.346Z,100.00
2022-09-15T02:50:39.889Z,100.00
2022-09-15T02:53:06.213Z,100.00
2022-09-15T02:55:32.548Z,100.00
2022-09-15T02:57:58.915Z,100.00
2022-09-15T03:00:25.591Z,100.00
2022-09-15T03:02:53.578Z,100.00
2022-09-15T03:05:20.642Z,100.00
2022-09-15T03:07:47.008Z,100.00
2022-09-15T03:10:13.382Z,100.00
2022-09-15T03:12:40.178Z,100.00
2022-09-15T03:15:07.554Z,100.00
2022-09-15T03:17:36.333Z,100.00
2022-09-15T03:20:04.131Z,100.00
2022-09-15T03:22:30.482Z,100.00
2022-09-15T03:24:56.807Z,100.00
2022-09-15T03:27:23.159Z,100.00
2022-09-15T03:29:49.559Z,100.00
2022-09-15T03:32:15.877Z,100.00
2022-09-15T03:34:42.199Z,100.00
2022-09-15T03:37:08.519Z,100.00
2022-09-15T03:39:34.948Z,100.00
2022-09-15T03:42:01.497Z,100.00
2022-09-15T03:44:27.811Z,100.00
2022-09-15T03:46:54.133Z,100.00
2022-09-15T03:49:20.496Z,100.00
2022-09-15T03:51:46.809Z,100.00
2022-09-15T03:54:13.206Z,100.00
2022-09-15T03:56:39.600Z,100.00
2022-09-15T03:59:05.925Z,100.00
2022-09-15T04:01:32.471Z,100.00
2022-09-15T04:03:58.896Z,100.00
2022-09-15T04:06:25.561Z,100.00
2022-09-15T04:08:52.366Z,100.00
2022-09-15T04:11:19.097Z,100.00
2022-09-15T04:13:45.655Z,100.00
2022-09-15T04:16:15.596Z,100.00
2022-09-15T04:18:42.008Z,100.00
2022-09-15T04:21:13.095Z,100.00
2022-09-15T04:23:39.718Z,100.00
2022-09-15T04:26:06.773Z,100.00
2022-09-15T04:28:33.820Z,100.00
2022-09-15T04:31:03.549Z,100.00
2022-09-15T04:33:29.956Z,100.00
2022-09-15T04:36:02.925Z,100.00
2022-09-15T04:38:29.334Z,100.00
2022-09-15T04:40:55.665Z,100.00
2022-09-15T04:43:22.096Z,100.00
2022-09-15T04:45:50.159Z,100.00
2022-09-15T04:48:16.799Z,100.00
2022-09-15T04:50:43.356Z,100.00
2022-09-15T04:53:09.678Z,100.00
2022-09-15T04:55:35.998Z,100.00
2022-09-15T04:58:02.597Z,100.00
2022-09-15T05:00:29.366Z,100.00
2022-09-15T05:02:55.711Z,100.00
2022-09-15T05:05:22.029Z,100.00
2022-09-15T05:07:48.355Z,100.00
2022-09-15T05:10:14.732Z,100.00
2022-09-15T05:12:41.439Z,100.00
2022-09-15T05:15:07.836Z,100.00
2022-09-15T05:17:34.472Z,100.00
2022-09-15T05:20:00.927Z,100.00
2022-09-15T05:22:27.424Z,100.00
2022-09-15T05:24:53.875Z,100.00
2022-09-15T05:27:20.194Z,100.00
2022-09-15T05:29:46.523Z,100.00
2022-09-15T05:32:12.898Z,100.00
2022-09-15T05:34:39.239Z,100.00
2022-09-15T05:37:05.619Z,100.00
2022-09-15T05:39:31.934Z,100.00
2022-09-15T05:41:59.685Z,100.00
2022-09-15T05:44:26.011Z,100.00
2022-09-15T05:46:52.421Z,100.00
2022-09-15T05:49:18.807Z,100.00
2022-09-15T05:51:45.132Z,100.00
2022-09-15T05:54:11.441Z,100.00
2022-09-15T05:56:37.771Z,100.00
2022-09-15T05:59:04.086Z,100.00
2022-09-15T06:01:31.055Z,100.00
2022-09-15T06:03:57.403Z,100.00
2022-09-15T06:06:23.983Z,100.00
2022-09-15T06:08:56.909Z,100.00
2022-09-15T06:11:28.188Z,100.00
2022-09-15T06:13:54.559Z,100.00
2022-09-15T06:16:21.762Z,100.00
2022-09-15T06:18:48.533Z,100.00
2022-09-15T06:21:16.073Z,100.00
2022-09-15T06:23:44.124Z,100.00
2022-09-15T06:26:14.583Z,100.00
2022-09-15T06:28:42.282Z,100.00
2022-09-15T06:31:12.274Z,100.00
2022-09-15T06:33:41.045Z,100.00
2022-09-15T06:36:07.378Z,100.00
2022-09-15T06:38:33.692Z,100.00
2022-09-15T06:41:00.005Z,100.00
2022-09-15T06:43:26.360Z,100.00
2022-09-15T06:45:52.710Z,100.00
2022-09-15T06:48:24.756Z,100.00
2022-09-15T06:50:54.887Z,100.00
2022-09-15T06:53:21.674Z,100.00
2022-09-15T06:55:47.999Z,100.00
2022-09-15T06:58:14.372Z,100.00
2022-09-15T07:00:40.698Z,100.00
2022-09-15T07:03:07.400Z,100.00
2022-09-15T07:05:33.797Z,100.00
2022-09-15T07:08:00.123Z,100.00
2022-09-15T07:10:26.504Z,100.00
2022-09-15T07:12:52.965Z,100.00
2022-09-15T07:15:19.331Z,100.00
2022-09-15T07:17:45.671Z,100.00
2022-09-15T07:20:11.981Z,100.00
2022-09-15T07:22:38.431Z,100.00
2022-09-15T07:25:04.899Z,100.00
2022-09-15T07:27:31.910Z,100.00
2022-09-15T07:29:58.752Z,100.00
2022-09-15T07:32:25.238Z,100.00
2022-09-15T07:34:55.467Z,100.00
2022-09-15T07:37:24.073Z,100.00
2022-09-15T07:39:50.408Z,100.00
2022-09-15T07:42:16.850Z,100.00
2022-09-15T07:44:43.166Z,100.00
2022-09-15T07:47:09.580Z,100.00
2022-09-15T07:49:35.983Z,100.00
2022-09-15T07:52:02.605Z,100.00
2022-09-15T07:54:28.915Z,100.00
2022-09-15T07:56:55.276Z,100.00
2022-09-15T07:59:21.627Z,100.00
2022-09-15T08:01:48.071Z,100.00
2022-09-15T08:04:14.485Z,100.00
2022-09-15T08:06:40.851Z,100.00
2022-09-15T08:09:07.163Z,100.00
2022-09-15T08:11:33.800Z,100.00
2022-09-15T08:14:01.146Z,100.00
2022-09-15T08:16:27.627Z,100.00
2022-09-15T08:18:54.403Z,100.00
2022-09-15T08:21:21.048Z,100.00
2022-09-15T08:23:51.640Z,100.00
2022-09-15T08:26:18.137Z,100.00
2022-09-15T08:28:44.532Z,100.00
2022-09-15T08:31:11.505Z,100.00
2022-09-15T08:33:41.852Z,100.00
2022-09-15T08:36:11.469Z,100.00
2022-09-15T08:38:41.132Z,100.00
2022-09-15T08:41:10.243Z,100.00
2022-09-15T08:43:39.245Z,100.00
2022-09-15T08:46:06.179Z,100.00
2022-09-15T08:48:51.332Z,100.00
2022-09-15T08:51:26.255Z,100.00
2022-09-15T08:53:54.071Z,100.00
2022-09-15T08:56:21.035Z,100.00
2022-09-15T08:58:47.668Z,100.00
2022-09-15T09:01:16.985Z,100.00
2022-09-15T09:04:02.193Z,100.00
2022-09-15T09:06:32.492Z,100.00
2022-09-15T09:09:08.670Z,100.00
2022-09-15T09:11:44.179Z,100.00
2022-09-15T09:14:16.904Z,100.00
2022-09-15T09:16:46.782Z,100.00
2022-09-15T09:19:16.203Z,100.00
2022-09-15T09:21:43.749Z,100.00
2022-09-15T09:24:17.118Z,100.00
2022-09-15T09:26:43.616Z,98.83
2022-09-15T09:29:17.526Z,100.00
2022-09-15T09:31:45.632Z,99.82
2022-09-15T09:34:18.093Z,100.00
2022-09-15T09:36:44.417Z,95.46
2022-09-15T09:39:13.985Z,100.00
2022-09-15T09:41:40.490Z,96.08
2022-09-15T09:44:07.123Z,95.56
2022-09-15T09:46:34.492Z,94.52
2022-09-15T09:49:02.805Z,93.48
2022-09-15T09:51:33.380Z,92.65
2022-09-15T09:54:15.328Z,95.96
2022-09-15T09:56:44.756Z,94.37
2022-09-15T09:59:31.293Z,93.30
2022-09-15T10:02:17.954Z,92.98
2022-09-15T10:04:53.938Z,89.57
2022-09-15T10:07:21.560Z,89.38
2022-09-15T10:09:52.885Z,88.49
2022-09-15T10:12:23.288Z,84.97
2022-09-15T10:14:52.484Z,85.99
2022-09-15T10:17:20.154Z,85.25
2022-09-15T10:19:50.808Z,82.00
2022-09-15T10:22:32.985Z,76.00
2022-09-15T10:25:00.381Z,78.14
2022-09-15T10:27:29.766Z,77.54
2022-09-15T10:29:56.213Z,79.96
2022-09-15T10:32:26.851Z,82.17
2022-09-15T10:35:00.356Z,78.41
2022-09-15T10:37:26.660Z,78.27
2022-09-15T10:39:53.423Z,82.41
2022-09-15T10:42:40.065Z,80.65
2022-09-15T10:45:09.638Z,81.63
2022-09-15T10:47:39.940Z,83.86
2022-09-15T10:50:15.297Z,83.85
2022-09-15T10:52:57.902Z,80.74
2022-09-15T10:55:51.150Z,82.55
2022-09-15T10:58:41.051Z,79.37
2022-09-15T11:01:28.278Z,78.05
2022-09-15T11:03:54.513Z,78.05
2022-09-15T11:06:25.766Z,78.22
2022-09-15T11:09:01.643Z,79.15
2022-09-15T11:11:46.735Z,82.61
2022-09-15T11:14:32.131Z,81.70
2022-09-15T11:17:10.616Z,81.30
2022-09-15T11:19:43.087Z,83.36
2022-09-15T11:22:14.103Z,78.46
2022-09-15T11:24:47.973Z,74.79
2022-09-15T11:27:14.345Z,73.37
2022-09-15T11:29:46.652Z,74.49
2022-09-15T11:32:15.258Z,75.86
2022-09-15T11:34:43.854Z,76.31
2022-09-15T11:37:12.126Z,77.63
2022-09-15T11:39:44.321Z,75.33
2022-09-15T11:42:11.724Z,78.55
2022-09-15T11:44:39.088Z,75.51
2022-09-15T11:47:05.435Z,77.76
2022-09-15T11:49:37.014Z,77.82
2022-09-15T11:52:06.808Z,78.66
2022-09-15T11:54:41.293Z,78.72
2022-09-15T11:57:12.459Z,76.34
2022-09-15T11:59:50.456Z,75.28
2022-09-15T12:02:24.752Z,74.84
2022-09-15T12:04:57.928Z,75.08
2022-09-15T12:07:28.836Z,75.17
2022-09-15T12:09:55.535Z,74.97
2022-09-15T12:12:21.905Z,77.92
2022-09-15T12:14:48.709Z,78.26
2022-09-15T12:17:21.528Z,77.00
2022-09-15T12:19:57.279Z,76.25
2022-09-15T12:22:25.329Z,76.79
2022-09-15T12:25:10.508Z,74.88
2022-09-15T12:27:36.855Z,75.15
2022-09-15T12:30:04.897Z,75.16
2022-09-15T12:32:32.435Z,74.48
2022-09-15T12:34:58.845Z,74.24
2022-09-15T12:37:26.003Z,71.98
2022-09-15T12:39:53.052Z,70.73
2022-09-15T12:42:20.299Z,68.64
2022-09-15T12:44:48.329Z,70.76
2022-09-15T12:47:21.774Z,70.26
2022-09-15T12:49:48.388Z,68.84
2022-09-15T12:52:14.734Z,67.60
2022-09-15T12:54:41.363Z,69.88
2022-09-15T12:57:08.065Z,69.70
2022-09-15T12:59:34.481Z,68.47
2022-09-15T13:02:02.488Z,66.99
2022-09-15T13:04:43.992Z,67.44
2022-09-15T13:07:16.475Z,65.80
2022-09-15T13:09:46.465Z,65.39
2022-09-15T13:12:13.625Z,65.95
2022-09-15T13:14:41.939Z,67.25
2022-09-15T13:17:16.559Z,67.18
2022-09-15T13:19:46.743Z,70.02
2022-09-15T13:22:22.518Z,69.44
2022-09-15T13:25:04.564Z,69.64
2022-09-15T13:27:36.811Z,71.14
2022-09-15T13:30:09.573Z,69.52
2022-09-15T13:32:39.798Z,70.65
2022-09-15T13:35:26.541Z,69.11
2022-09-15T13:38:12.171Z,68.15
2022-09-15T13:40:43.871Z,68.08
2022-09-15T13:43:21.743Z,68.78
2022-09-15T13:45:57.488Z,67.53
2022-09-15T13:48:42.809Z,66.85
2022-09-15T13:51:13.089Z,67.62
2022-09-15T13:53:42.833Z,68.77
2022-09-15T13:56:13.393Z,70.22
2022-09-15T13:59:12.395Z,71.11
2022-09-15T14:01:28.147Z,71.61
2022-09-15T14:03:58.456Z,71.49
2022-09-15T14:06:26.372Z,70.79
2022-09-15T14:08:53.933Z,69.92
2022-09-15T14:11:25.344Z,71.70
2022-09-15T14:13:51.713Z,70.41
2022-09-15T14:16:19.491Z,71.71
2022-09-15T14:18:45.937Z,71.28
2022-09-15T14:21:19.211Z,72.58
2022-09-15T14:23:52.695Z,71.82
2022-09-15T14:26:19.756Z,74.15
2022-09-15T14:28:50.181Z,74.33
2022-09-15T14:31:16.738Z,72.59
2022-09-15T14:33:43.101Z,70.57
2022-09-15T14:36:22.244Z,70.96
2022-09-15T14:39:10.577Z,73.87
2022-09-15T14:41:37.122Z,75.78
2022-09-15T14:45:52.463Z,75.36
2022-09-15T14:47:13.650Z,77.14
2022-09-15T14:49:40.305Z,76.14
2022-09-15T14:52:11.788Z,75.56
2022-09-15T14:54:38.116Z,75.02
2022-09-15T14:57:04.483Z,76.32
2022-09-15T14:59:33.282Z,74.70
2022-09-15T15:02:05.865Z,75.71
2022-09-15T15:04:32.209Z,78.57
2022-09-15T15:07:04.889Z,78.87
2022-09-15T15:09:37.595Z,79.94
2022-09-15T15:12:24.387Z,79.67
2022-09-15T15:14:51.520Z,78.59
2022-09-15T15:17:25.194Z,79.20
2022-09-15T15:19:57.558Z,76.94
2022-09-15T15:22:24.083Z,78.13
2022-09-15T15:24:51.225Z,80.06
2022-09-15T15:27:24.596Z,76.27
2022-09-15T15:29:51.749Z,77.21
2022-09-15T15:32:20.627Z,76.64
2022-09-15T15:34:55.685Z,76.39
2022-09-15T15:37:29.037Z,78.34
2022-09-15T15:40:01.880Z,76.55
2022-09-15T15:42:28.862Z,77.95
2022-09-15T15:44:59.183Z,78.71
2022-09-15T15:47:25.563Z,79.61
2022-09-15T15:50:12.379Z,83.03
2022-09-15T15:52:41.254Z,82.31
2022-09-15T15:55:07.568Z,80.63
2022-09-15T15:57:37.360Z,80.07
2022-09-15T16:00:04.147Z,80.65
2022-09-15T16:02:30.521Z,82.36
2022-09-15T16:04:56.848Z,85.49
2022-09-15T16:07:23.175Z,89.41
2022-09-15T16:09:49.601Z,90.65
2022-09-15T16:12:16.483Z,90.96
2022-09-15T16:14:42.811Z,92.13
2022-09-15T16:17:09.245Z,94.96
2022-09-15T16:19:35.559Z,90.82
2022-09-15T16:22:01.908Z,91.39
2022-09-15T16:24:28.653Z,87.74
2022-09-15T16:26:55.133Z,89.53
2022-09-15T16:29:26.104Z,88.94
2022-09-15T16:31:52.918Z,88.49
2022-09-15T16:34:19.499Z,91.63
2022-09-15T16:36:45.853Z,93.19
2022-09-15T16:39:12.340Z,93.92
2022-09-15T16:41:39.483Z,93.10
2022-09-15T16:44:07.174Z,90.79
2022-09-15T16:46:33.574Z,90.11
2022-09-15T16:48:59.929Z,90.18
2022-09-15T16:51:30.922Z,91.86
2022-09-15T16:53:57.870Z,90.40
2022-09-15T16:56:24.338Z,93.24
2022-09-15T16:58:55.896Z,91.50
2022-09-15T17:01:25.946Z,90.14
2022-09-15T17:03:52.382Z,91.73
2022-09-15T17:06:18.945Z,88.26
2022-09-15T17:08:45.364Z,91.89
2022-09-15T17:11:16.684Z,93.34
2022-09-15T17:13:43.522Z,95.69
2022-09-15T17:16:09.919Z,93.44
2022-09-15T17:18:36.296Z,92.26
2022-09-15T17:21:02.731Z,94.25
2022-09-15T17:23:35.514Z,92.26
2022-09-15T17:26:02.644Z,96.28
2022-09-15T17:28:29.696Z,99.41
2022-09-15T17:30:56.846Z,97.12
2022-09-15T17:33:23.232Z,95.13
2022-09-15T17:35:49.606Z,96.06
2022-09-15T17:38:16.080Z,95.62
2022-09-15T17:40:42.816Z,94.04
2022-09-15T17:43:12.902Z,94.13
2022-09-15T17:45:39.285Z,92.00
2022-09-15T17:48:05.620Z,92.94
2022-09-15T17:50:32.557Z,92.79
2022-09-15T17:52:58.878Z,92.17
2022-09-15T17:55:32.091Z,93.69
2022-09-15T17:57:59.041Z,93.15
2022-09-15T18:00:25.795Z,93.99
2022-09-15T18:02:52.870Z,93.49
2022-09-15T18:05:20.346Z,95.60
2022-09-15T18:07:47.058Z,94.26
2022-09-15T18:10:13.983Z,94.80
2022-09-15T18:12:41.857Z,95.43
2022-09-15T18:15:11.970Z,96.22
2022-09-15T18:17:38.562Z,97.65
2022-09-15T18:20:05.085Z,95.98
2022-09-15T18:22:31.572Z,96.88
2022-09-15T18:24:57.926Z,98.23
2022-09-15T18:27:24.340Z,99.70
2022-09-15T18:29:51.377Z,98.14
2022-09-15T18:32:17.760Z,99.76
2022-09-15T18:34:44.084Z,100.00
2022-09-15T18:37:10.426Z,100.00
2022-09-15T18:39:37.501Z,100.00
2022-09-15T18:42:03.895Z,100.00
2022-09-15T18:44:30.219Z,100.00
2022-09-15T18:46:56.650Z,100.00
2022-09-15T18:49:23.033Z,100.00
2022-09-15T18:51:52.371Z,100.00
2022-09-15T18:54:18.756Z,100.00
2022-09-15T18:56:45.080Z,100.00
2022-09-15T18:59:11.413Z,100.00
2022-09-15T19:01:37.779Z,100.00
2022-09-15T19:04:04.251Z,100.00
2022-09-15T19:06:30.981Z,100.00
2022-09-15T19:08:57.406Z,100.00
2022-09-15T19:11:23.741Z,100.00
2022-09-15T19:13:51.943Z,100.00
2022-09-15T19:16:20.196Z,100.00
2022-09-15T19:18:50.042Z,100.00
2022-09-15T19:21:16.383Z,100.00
2022-09-15T19:23:42.711Z,100.00
2022-09-15T19:26:09.932Z,100.00
2022-09-15T19:28:36.263Z,99.82
2022-09-15T19:31:02.634Z,100.00
2022-09-15T19:33:29.009Z,100.00
2022-09-15T19:36:10.553Z,100.00
2022-09-15T19:38:41.727Z,100.00
2022-09-15T19:41:09.109Z,100.00
2022-09-15T19:43:35.684Z,100.00
2022-09-15T19:46:02.440Z,100.00
2022-09-15T19:48:28.816Z,100.00
2022-09-15T19:50:55.200Z,100.00
2022-09-15T19:53:22.024Z,100.00
2022-09-15T19:55:49.117Z,100.00
2022-09-15T19:58:15.907Z,100.00
2022-09-15T20:00:42.498Z,100.00
2022-09-15T20:03:08.892Z,100.00
2022-09-15T20:05:35.207Z,100.00
2022-09-15T20:08:02.077Z,100.00
2022-09-15T20:10:28.431Z,100.00
2022-09-15T20:12:54.832Z,100.00
2022-09-15T20:15:21.142Z,100.00
2022-09-15T20:17:47.463Z,100.00
2022-09-15T20:20:13.852Z,100.00
2022-09-15T20:22:40.295Z,100.00
2022-09-15T20:25:06.632Z,100.00
2022-09-15T20:27:33.216Z,100.00
2022-09-15T20:29:59.555Z,100.00
2022-09-15T20:32:29.267Z,100.00
2022-09-15T20:34:55.649Z,100.00
2022-09-15T20:37:23.021Z,100.00
2022-09-15T20:39:51.214Z,100.00
2022-09-15T20:42:17.841Z,99.67
2022-09-15T20:44:44.243Z,100.00
2022-09-15T20:47:10.884Z,100.00
2022-09-15T20:49:37.216Z,100.00
2022-09-15T20:52:03.708Z,100.00
2022-09-15T20:54:30.027Z,100.00
2022-09-15T20:56:56.354Z,100.00
2022-09-15T20:59:22.689Z,100.00
2022-09-15T21:01:49.066Z,100.00
2022-09-15T21:04:15.440Z,100.00
2022-09-15T21:06:42.012Z,100.00
2022-09-15T21:09:08.662Z,100.00
2022-09-15T21:11:34.987Z,100.00
2022-09-15T21:14:01.472Z,100.00
2022-09-15T21:16:28.141Z,100.00
2022-09-15T21:18:55.156Z,100.00
2022-09-15T21:21:22.206Z,100.00
2022-09-15T21:23:49.185Z,100.00
2022-09-15T21:26:16.510Z,100.00
2022-09-15T21:28:43.590Z,100.00
2022-09-15T21:31:19.814Z,100.00
2022-09-15T21:33:46.421Z,100.00
2022-09-15T21:36:17.437Z,100.00
2022-09-15T21:38:44.551Z,100.00
2022-09-15T21:41:14.922Z,100.00
2022-09-15T21:43:41.840Z,100.00
2022-09-15T21:46:10.850Z,100.00
2022-09-15T21:48:37.975Z,100.00
2022-09-15T21:51:04.839Z,100.00
2022-09-15T21:53:32.154Z,100.00
2022-09-15T21:56:02.016Z,100.00
2022-09-15T21:58:39.051Z,100.00
2022-09-15T22:01:11.818Z,100.00
2022-09-15T22:03:42.350Z,100.00
2022-09-15T22:06:11.915Z,100.00
2022-09-15T22:08:38.595Z,100.00
2022-09-15T22:11:05.322Z,100.00
2022-09-15T22:13:31.657Z,100.00
2022-09-15T22:16:02.129Z,100.00
2022-09-15T22:18:28.494Z,100.00
2022-09-15T22:21:04.958Z,100.00
2022-09-15T22:23:31.384Z,100.00
2022-09-15T22:26:03.791Z,100.00
2022-09-15T22:28:31.136Z,100.00
2022-09-15T22:31:00.930Z,100.00
2022-09-15T22:33:27.300Z,100.00
2022-09-15T22:35:53.869Z,100.00
2022-09-15T22:38:20.374Z,100.00
2022-09-15T22:40:46.786Z,100.00
2022-09-15T22:43:13.206Z,100.00
2022-09-15T22:45:39.571Z,100.00
2022-09-15T22:48:06.247Z,100.00
2022-09-15T22:50:32.568Z,100.00
2022-09-15T22:52:58.894Z,100.00
2022-09-15T22:55:25.529Z,100.00
2022-09-15T22:57:51.849Z,100.00
2022-09-15T23:00:18.164Z,100.00
2022-09-15T23:02:44.506Z,100.00
2022-09-15T23:05:10.864Z,100.00
2022-09-15T23:07:37.218Z,100.00
2022-09-15T23:10:03.647Z,100.00
2022-09-15T23:12:30.194Z,100.00
2022-09-15T23:14:56.598Z,100.00
2022-09-15T23:17:22.930Z,100.00
2022-09-15T23:19:49.273Z,100.00
2022-09-15T23:22:15.620Z,100.00
2022-09-15T23:24:42.280Z,100.00
2022-09-15T23:27:08.625Z,100.00
2022-09-15T23:29:34.971Z,100.00
2022-09-15T23:32:01.317Z,100.00
2022-09-15T23:34:27.651Z,100.00
2022-09-15T23:36:53.971Z,100.00
2022-09-15T23:39:20.432Z,100.00
2022-09-15T23:41:46.752Z,100.00
2022-09-15T23:44:13.083Z,100.00
2022-09-15T23:46:39.460Z,100.00
2022-09-15T23:49:05.852Z,100.00
2022-09-15T23:51:32.240Z,100.00
2022-09-15T23:53:58.638Z,100.00
2022-09-15T23:56:24.967Z,100.00
2022-09-15T23:58:51.296Z,100.00
